M I D A S
Marine Information and Data Acquisition System
Tripno 2082 of the Zeeleeuw from 2011-04-21 11:06:20 to 2011-04-21 15:38:22
Back to CruiseResearch ActivitiesStationsMapUnderway DataData graphs

EquipmentUnitsComment
TimeDGPSUTC
LatitudeDGPSDM.mWGS84
LongitudeDGPSDM.mWGS84
HeadingGyrodeg 
SOGDGPSknotsSpeed over ground
COGDGPSdegCourse over ground
DepthEcho soundermeters200 kHz
Missing or incorrect values are displayed as -999
Navigation data collected by the RV Zeeleeuw from 2011-04-21 07:36:17 to 2011-04-21 15:43:30
Time Latitude Longitude Heading SOG COG Depth
2011-04-21 07:37:25 51°13.676 2°55.911 110.2 3.1 295 -999
2011-04-21 07:38:25 51°13.701 2°55.821 113.7 4 295 -999
2011-04-21 07:39:25 51°13.74 2°55.727 132.2 4.6 312 -999
2011-04-21 07:40:25 51°13.805 2°55.65 155 5.1 335 -999
2011-04-21 07:41:25 51°13.887 2°55.625 179.4 4.7 359 -999
2011-04-21 07:42:25 51°13.95 2°55.638 200.8 2.8 16 -999
2011-04-21 07:43:25 51°13.962 2°55.636 241.2 1.6 257 -999
2011-04-21 07:44:24 51°13.99 2°55.554 315.5 5.7 320 9.5
2011-04-21 07:45:24 51°14.093 2°55.45 330.4 8.1 331 9.5
2011-04-21 07:46:25 51°14.23 2°55.329 330.4 10.1 329 9.4
2011-04-21 07:47:25 51°14.385 2°55.179 329.7 11.5 330 -999
2011-04-21 07:48:24 51°14.548 2°55.011 324.7 12.6 317 10.6
2011-04-21 07:49:22 51°14.656 2°54.721 292.9 13.6 283 9.9
2011-04-21 07:50:22 51°14.602 2°54.377 239.5 13.9 240 8.4
2011-04-21 07:51:21 51°14.474 2°54.068 235.5 14.2 239 8.2
2011-04-21 07:52:21 51°14.374 2°53.727 244.7 14.3 245 5.9
2011-04-21 07:53:22 51°14.261 2°53.385 240.3 14.5 241 8.3
2011-04-21 07:54:20 51°14.145 2°53.061 239.6 14.6 240 8.7
2011-04-21 07:55:22 51°13.996 2°52.739 227.9 14.6 230 8.9
2011-04-21 07:56:20 51°13.863 2°52.429 239.2 14.6 240 8.8
2011-04-21 07:57:21 51°13.73 2°52.096 230.8 14.7 232 8.9
2011-04-21 07:58:21 51°13.589 2°51.777 239.6 14.7 241 8.9
2011-04-21 07:59:21 51°13.452 2°51.454 229.4 14.7 231 9.1
2011-04-21 08:00:21 51°13.312 2°51.134 240.2 14.8 241 9.2
2011-04-21 08:01:22 51°13.186 2°50.79 238.3 14.8 240 9.4
2011-04-21 08:02:21 51°13.048 2°50.475 228.6 14.7 230 9.4
2011-04-21 08:03:21 51°12.89 2°50.179 230.4 14.7 233 9.5
2011-04-21 08:04:22 51°12.747 2°49.856 234.1 14.7 236 9.5
2011-04-21 08:05:21 51°12.609 2°49.545 230.4 14.5 232 9.4
2011-04-21 08:06:22 51°12.491 2°49.207 247 14.5 247 9.1
2011-04-21 08:07:21 51°12.395 2°48.859 244 14.6 243 9.4
2011-04-21 08:08:21 51°12.267 2°48.531 236.6 14.6 238 9.6
2011-04-21 08:09:21 51°12.163 2°48.183 249.7 14.6 249 9.6
2011-04-21 08:10:21 51°12.058 2°47.836 237.6 14.5 239 9.8
2011-04-21 08:11:21 51°11.938 2°47.503 244.3 14.5 246 9.7
2011-04-21 08:12:22 51°11.849 2°47.138 248.4 14.6 248 9.9
2011-04-21 08:13:21 51°11.733 2°46.808 235.7 14.5 238 9.8
2011-04-21 08:14:20 51°11.63 2°46.467 248.4 14.6 249 9.8
2011-04-21 08:15:21 51°11.53 2°46.11 239.5 14.5 240 9.9
2011-04-21 08:16:20 51°11.426 2°45.771 247.7 14.5 249 9.5
2011-04-21 08:17:22 51°11.33 2°45.405 244.5 14.4 243 9.5
2011-04-21 08:18:21 51°11.21 2°45.084 236 14.3 239 9.2
2011-04-21 08:19:21 51°11.123 2°44.735 253.1 14.3 253 9.1
2011-04-21 08:20:21 51°11.03 2°44.388 239.1 14.2 240 9
2011-04-21 08:21:22 51°10.91 2°44.059 239.2 14.1 242 8.6
2011-04-21 08:22:22 51°10.837 2°43.706 254.9 14.1 254 8.6
2011-04-21 08:23:20 51°10.753 2°43.372 239.6 14.1 241 8.6
2011-04-21 08:24:21 51°10.637 2°43.045 243.3 13.9 248 6
2011-04-21 08:25:21 51°10.576 2°42.69 254.1 14 254 8.3
2011-04-21 08:26:21 51°10.505 2°42.335 252.2 14.1 253 8.5
2011-04-21 08:27:21 51°10.412 2°41.994 236.3 13.9 238 8.4
2011-04-21 08:28:21 51°10.308 2°41.668 253 13.8 256 8.2
2011-04-21 08:29:22 51°10.254 2°41.303 248.9 14 248 8.7
2011-04-21 08:30:21 51°10.164 2°40.967 250.4 14.1 253 8.7
2011-04-21 08:31:21 51°10.113 2°40.603 255.5 14.1 254 9.1
2011-04-21 08:32:21 51°10.023 2°40.259 244.4 14.1 247 9
2011-04-21 08:33:21 51°9.969 2°39.896 259.7 14.2 260 9.2
2011-04-21 08:34:21 51°9.897 2°39.539 245.7 14.2 247 9.4
2011-04-21 08:35:21 51°9.819 2°39.185 255.2 14.2 257 9.6
2011-04-21 08:36:21 51°9.774 2°38.864 249.2 8.9 248 10.2
2011-04-21 08:37:21 51°9.715 2°38.723 220 5 229 10.1
2011-04-21 08:38:21 51°9.666 2°38.646 205.5 3.5 221 9.9
2011-04-21 08:39:21 51°9.619 2°38.583 211.1 4 224 9.8
2011-04-21 08:40:21 51°9.576 2°38.499 227 4.1 235 9.6
2011-04-21 08:41:21 51°9.541 2°38.407 238.4 4.1 244 9.6
2011-04-21 08:42:21 51°9.514 2°38.309 245.2 4 248 9.6
2011-04-21 08:43:21 51°9.492 2°38.209 253.7 4 255 9.6
2011-04-21 08:44:21 51°9.477 2°38.107 262.6 3.9 260 9.7
2011-04-21 08:45:21 51°9.469 2°38.005 270.1 3.8 265 9.8
2011-04-21 08:46:21 51°9.463 2°37.903 268.3 3.9 264 10.1
2011-04-21 08:47:21 51°9.454 2°37.8 264.3 3.9 261 10.1
2011-04-21 08:48:21 51°9.442 2°37.698 260.4 3.9 259 10.6
2011-04-21 08:49:21 51°9.428 2°37.597 258.5 3.9 257 10.7
2011-04-21 08:50:21 51°9.414 2°37.495 261.4 4 259 10.9
2011-04-21 08:51:22 51°9.402 2°37.389 264.7 4 261 11.1
2011-04-21 08:52:21 51°9.393 2°37.287 267.9 4 263 11.6
2011-04-21 08:53:21 51°9.386 2°37.181 270.7 4 265 11.9
2011-04-21 08:54:21 51°9.381 2°37.076 271.4 4 264 12.5
2011-04-21 08:55:21 51°9.371 2°36.972 259.1 4 257 13
2011-04-21 08:56:21 51°9.352 2°36.872 247.2 3.9 250 13.3
2011-04-21 08:57:21 51°9.325 2°36.777 235.9 3.9 242 13.5
2011-04-21 08:58:20 51°9.294 2°36.687 231.3 4 239 13.4
2011-04-21 08:59:20 51°9.259 2°36.595 232.7 4.1 240 13.4
2011-04-21 09:00:21 51°9.227 2°36.498 239.9 4.1 245 13.4
2011-04-21 09:01:21 51°9.203 2°36.397 255.7 4.1 254 13.6
2011-04-21 09:02:22 51°9.192 2°36.291 272.2 3.9 265 14
2011-04-21 09:03:21 51°9.189 2°36.192 281.3 3.8 270 14.2
2011-04-21 09:04:21 51°9.198 2°36.097 307 3.4 286 14.4
2011-04-21 09:05:21 51°9.216 2°36.015 320.2 3 289 14.6
2011-04-21 09:06:20 51°9.23 2°35.947 325.6 2.6 286 14.4
2011-04-21 09:07:21 51°9.239 2°35.884 324.4 2.4 280 14.7
2011-04-21 09:08:21 51°9.243 2°35.824 319.2 2.3 273 14.9
2011-04-21 09:09:21 51°9.254 2°35.747 313.9 4.8 294 15
2011-04-21 09:10:21 51°9.314 2°35.581 310.3 9.1 301 15
2011-04-21 09:11:21 51°9.386 2°35.428 333.2 5.1 315 15.8
2011-04-21 09:12:21 51°9.433 2°35.358 352.7 3 318 15.6
2011-04-21 09:13:21 51°9.462 2°35.313 4 2.1 313 16.4
2011-04-21 09:14:21 51°9.48 2°35.274 6.8 1.7 301 16.7
2011-04-21 09:15:21 51°9.49 2°35.234 4 1.6 287 16.9
2011-04-21 09:16:21 51°9.496 2°35.19 357 1.7 278 16.2
2011-04-21 09:17:21 51°9.498 2°35.143 352.6 1.8 272 17.2
2011-04-21 09:18:21 51°9.498 2°35.095 349.9 1.8 268 17.2
2011-04-21 09:19:21 51°9.5 2°35.045 348.6 2 278 17.1
2011-04-21 09:20:21 51°9.505 2°34.995 352.1 1.9 282 17
2011-04-21 09:21:21 51°9.514 2°34.946 357 1.9 287 17.1
2011-04-21 09:22:21 51°9.524 2°34.9 2.2 1.8 292 17.9
2011-04-21 09:23:21 51°9.535 2°34.857 7.4 1.7 294 18.3
2011-04-21 09:24:21 51°9.547 2°34.818 13.8 1.5 297 18.5
2011-04-21 09:25:21 51°9.567 2°34.791 23 2.7 356 18.5
2011-04-21 09:26:21 51°9.632 2°34.816 32 3.8 21 17.6
2011-04-21 09:27:21 51°9.672 2°34.853 47.2 2.5 36 17.1
2011-04-21 09:28:21 51°9.731 2°34.904 33.5 6.1 26 16.8
2011-04-21 09:29:21 51°9.85 2°35.002 29.8 9.7 26 14.2
2011-04-21 09:30:21 51°10.006 2°35.149 36.6 11.5 37 10.4
2011-04-21 09:31:21 51°10.154 2°35.343 37.6 11.6 36 9.7
2011-04-21 09:32:21 51°10.321 2°35.502 33.1 11.6 35 10.2
2011-04-21 09:33:21 51°10.46 2°35.711 45.5 11.5 47 9.5
2011-04-21 09:34:21 51°10.603 2°35.906 34.1 11.4 33 9.6
2011-04-21 09:35:21 51°10.748 2°36.099 44.4 11.3 46 10
2011-04-21 09:36:21 51°10.884 2°36.306 38.1 11.3 37 10.5
2011-04-21 09:37:21 51°11.034 2°36.487 40.2 11.4 42 10.7
2011-04-21 09:38:21 51°11.167 2°36.7 42.4 11.3 42 11.2
2011-04-21 09:39:21 51°11.315 2°36.888 40.3 11.4 42 11.8
2011-04-21 09:40:21 51°11.436 2°37.119 54.2 11.5 58 12.4
2011-04-21 09:41:21 51°11.538 2°37.373 52.7 11.4 55 12.7
2011-04-21 09:42:21 51°11.643 2°37.623 52.9 11.3 54 12.9
2011-04-21 09:43:21 51°11.762 2°37.854 53.8 11.2 58 12.9
2011-04-21 09:44:21 51°11.843 2°38.125 63.2 11.3 66 12.7
2011-04-21 09:45:21 51°11.943 2°38.376 50.3 11.3 52 12.5
2011-04-21 09:46:21 51°12.057 2°38.614 53.8 11.3 57 12.2
2011-04-21 09:47:21 51°12.151 2°38.876 56.9 11.3 59 11.8
2011-04-21 09:48:21 51°12.263 2°39.117 49 11.3 50 11.8
2011-04-21 09:49:21 51°12.367 2°39.366 58.2 11.3 62 11.7
2011-04-21 09:50:21 51°12.463 2°39.621 53.1 11.1 53 11.7
2011-04-21 09:51:21 51°12.577 2°39.857 53.2 11.2 55 11.5
2011-04-21 09:52:21 51°12.675 2°40.106 57.9 11.1 61 11.7
2011-04-21 09:53:21 51°12.771 2°40.356 52.1 11.1 52 11.7
2011-04-21 09:54:21 51°12.884 2°40.59 54 11.3 57 12.3
2011-04-21 09:55:21 51°12.976 2°40.849 58.2 11.3 60 12.4
2011-04-21 09:56:21 51°13.087 2°41.085 48.9 11.2 50 12.6
2011-04-21 09:57:20 51°13.19 2°41.325 58.2 11.1 61 12.5
2011-04-21 09:58:21 51°13.287 2°41.58 53.8 11.1 54 12.8
2011-04-21 09:59:21 51°13.397 2°41.815 54.9 11.1 57 13.2
2011-04-21 10:00:21 51°13.489 2°42.069 57.1 11 58 12.9
2011-04-21 10:01:21 51°13.6 2°42.302 53.1 11.1 54 13
2011-04-21 10:02:21 51°13.695 2°42.553 59.5 11 60 13.2
2011-04-21 10:03:21 51°13.802 2°42.791 50.1 11.1 49 13.4
2011-04-21 10:04:20 51°13.905 2°43.03 57.9 11.1 60 13.4
2011-04-21 10:05:21 51°13.993 2°43.294 60.5 11.1 61 13.2
2011-04-21 10:06:21 51°14.088 2°43.55 57.4 11.2 57 13.2
2011-04-21 10:07:21 51°14.198 2°43.791 54.9 11.2 55 13.2
2011-04-21 10:08:21 51°14.295 2°44.047 60.8 11.2 62 13.1
2011-04-21 10:09:21 51°14.386 2°44.309 58.3 11.3 58 12.7
2011-04-21 10:10:21 51°14.497 2°44.549 56.7 11.2 58 12.8
2011-04-21 10:11:20 51°14.552 2°44.827 75.6 11.3 79 11.8
2011-04-21 10:12:21 51°14.598 2°45.122 68.3 11.3 69 10.8
2011-04-21 10:13:20 51°14.659 2°45.402 74.5 11.5 79 10.2
2011-04-21 10:14:21 51°14.681 2°45.711 80.1 11.4 82 8.7
2011-04-21 10:15:21 51°14.739 2°45.999 68.5 11.5 71 8.4
2011-04-21 10:16:21 51°14.749 2°46.304 95.2 11.9 101 8.5
2011-04-21 10:17:21 51°14.733 2°46.621 85.7 12.1 89 10.5
2011-04-21 10:18:21 51°14.725 2°46.938 93 11.9 98 12.5
2011-04-21 10:19:21 51°14.699 2°47.249 90.6 11.8 94 12.4
2011-04-21 10:20:21 51°14.704 2°47.557 83 11.5 86 11.7
2011-04-21 10:21:20 51°14.698 2°47.861 91.9 11.7 97 10.9
2011-04-21 10:22:21 51°14.693 2°48.174 83 11.6 87 11
2011-04-21 10:23:21 51°14.694 2°48.484 87.7 11.8 93 11.7
2011-04-21 10:24:20 51°14.674 2°48.79 90.1 11.7 93 11.9
2011-04-21 10:25:21 51°14.687 2°49.105 80 11.8 84 11.9
2011-04-21 10:26:21 51°14.686 2°49.417 89.3 11.8 95 11.9
2011-04-21 10:27:20 51°14.682 2°49.72 81.3 11.5 84 11.7
2011-04-21 10:28:21 51°14.704 2°50.028 82.4 11.5 88 11.6
2011-04-21 10:29:21 51°14.7 2°50.335 85.5 11.6 89 11.3
2011-04-21 10:30:20 51°14.721 2°50.637 80.8 11.7 85 11
2011-04-21 10:31:21 51°14.72 2°50.952 87.9 11.8 92 10.7
2011-04-21 10:32:21 51°14.735 2°51.259 77.5 11.7 82 10.4
2011-04-21 10:33:21 51°14.741 2°51.571 88.3 11.8 93 10
2011-04-21 10:34:21 51°14.751 2°51.879 77.8 11.5 81 9.7
2011-04-21 10:35:21 51°14.755 2°52.19 91.4 11.9 96 9.4
2011-04-21 10:36:21 51°14.74 2°52.504 85 11.8 88 9.2
2011-04-21 10:37:21 51°14.752 2°52.817 86.3 11.9 91 9.1
2011-04-21 10:38:21 51°14.735 2°53.132 88.2 11.8 92 8.9
2011-04-21 10:39:21 51°14.744 2°53.443 79.9 11.7 83 8.9
2011-04-21 10:40:21 51°14.761 2°53.751 85.7 11.8 91 8.9
2011-04-21 10:41:21 51°14.739 2°54.066 95.3 12 102 9.3
2011-04-21 10:42:21 51°14.683 2°54.373 103.9 12.1 110 9.4
2011-04-21 10:43:21 51°14.616 2°54.674 103.9 12.1 110 9.9
2011-04-21 10:44:21 51°14.521 2°54.96 118.4 12.3 129 11
2011-04-21 10:45:22 51°14.368 2°55.188 143.1 12.6 147 9.8
2011-04-21 10:46:24 51°14.21 2°55.346 149.1 9.2 153 -999
2011-04-21 10:47:25 51°14.086 2°55.439 154.3 7.3 157 10.2
2011-04-21 10:48:24 51°13.98 2°55.511 155.3 6.9 157 10.4
2011-04-21 10:49:24 51°13.874 2°55.578 157.3 6.8 158 -999
2011-04-21 10:50:24 51°13.777 2°55.655 145.6 5.6 146 10.1
2011-04-21 10:51:24 51°13.725 2°55.746 125.7 4.3 127 -999
2011-04-21 10:52:25 51°13.691 2°55.843 112.3 4 114 9.7
2011-04-21 10:53:24 51°13.671 2°55.93 108.3 2.7 108 7.7
2011-04-21 10:54:23 51°13.662 2°55.958 124.5 0.1 172 7.4
2011-04-21 10:55:20 51°13.662 2°55.96 124.6 0.1 42 7.1
2011-04-21 10:56:21 51°13.662 2°55.96 126.6 -999 99 7.2
2011-04-21 10:57:20 51°13.662 2°55.96 126.1 -999 246 7
2011-04-21 10:58:21 51°13.662 2°55.96 126.1 -999 172 7.2
2011-04-21 10:59:20 51°13.662 2°55.96 126.1 -999 88 7.2
2011-04-21 11:00:20 51°13.662 2°55.96 126.1 -999 136 7.2
2011-04-21 11:01:21 51°13.662 2°55.96 126 0.1 147 7.2
2011-04-21 11:02:21 51°13.661 2°55.961 126.8 0.1 65 7.2
2011-04-21 11:03:21 51°13.661 2°55.96 119.2 -999 170 7.2
2011-04-21 11:04:21 51°13.66 2°55.96 110.4 0.1 270 7.2
2011-04-21 11:05:25 51°13.676 2°55.901 108.3 3.3 292 -999
2011-04-21 11:06:25 51°13.69 2°55.802 89.5 3.8 274 -999
2011-04-21 11:07:24 51°13.689 2°55.748 60.8 0.7 52 12
2011-04-21 11:08:25 51°13.678 2°55.735 23.7 0.3 357 -999
2011-04-21 11:09:24 51°13.729 2°55.704 329.5 5.6 330 10.9
2011-04-21 11:10:22 51°13.832 2°55.622 335.3 8.1 336 10.7
2011-04-21 11:11:21 51°13.964 2°55.532 336 9 337 10.7
2011-04-21 11:12:22 51°14.104 2°55.437 336.4 8.9 336 10.5
2011-04-21 11:13:24 51°14.247 2°55.32 329.4 9.8 330 -999
2011-04-21 11:14:25 51°14.403 2°55.17 326.6 11.5 326 -999
2011-04-21 11:15:24 51°14.566 2°54.975 322.5 13.2 319 12.2
2011-04-21 11:16:22 51°14.735 2°54.769 327.4 13.2 323 11.8
2011-04-21 11:17:20 51°14.904 2°54.565 324.7 13.2 321 12
2011-04-21 11:18:21 51°15.101 2°54.469 6.5 11.9 9 9.2
2011-04-21 11:19:21 51°15.254 2°54.639 57.1 11.7 61 8.7
2011-04-21 11:20:21 51°15.365 2°54.9 48.8 12 50 8.7
2011-04-21 11:21:21 51°15.482 2°55.158 60.6 12 65 8.7
2011-04-21 11:22:21 51°15.576 2°55.437 51.1 11.9 51 8.6
2011-04-21 11:23:21 51°15.711 2°55.671 48.7 12.1 52 8.8
2011-04-21 11:24:21 51°15.807 2°55.952 61.1 12 63 8.7
2011-04-21 11:25:21 51°15.927 2°56.206 48.5 12.1 50 8.9
2011-04-21 11:26:21 51°16.028 2°56.481 62.4 12 65 8.9
2011-04-21 11:27:20 51°16.127 2°56.75 51.3 11.9 53 8.9
2011-04-21 11:28:21 51°16.223 2°57.035 64.3 12.1 67 8.8
2011-04-21 11:29:21 51°16.313 2°57.32 54.1 12 54 8.8
2011-04-21 11:30:21 51°16.42 2°57.59 62.3 12.1 67 9
2011-04-21 11:31:21 51°16.497 2°57.886 59.6 12.1 59 9.3
2011-04-21 11:32:21 51°16.619 2°58.14 50.9 12.1 53 9.2
2011-04-21 11:33:21 51°16.714 2°58.42 63.1 12 65 9.6
2011-04-21 11:34:21 51°16.816 2°58.693 50.5 12 50 9.5
2011-04-21 11:35:20 51°16.934 2°58.941 56.4 12 59 9.6
2011-04-21 11:36:21 51°17.031 2°59.224 59.4 11.9 60 9.5
2011-04-21 11:37:21 51°17.148 2°59.473 48.7 11.7 49 9.4
2011-04-21 11:38:21 51°17.257 2°59.732 59.2 11.8 62 9.3
2011-04-21 11:39:21 51°17.358 2°60 50.5 11.8 51 9.4
2011-04-21 11:40:21 51°17.473 3°0.255 60.1 11.9 63 9.3
2011-04-21 11:41:21 51°17.564 3°0.533 55.3 11.8 55 9.3
2011-04-21 11:42:21 51°17.676 3°0.791 58.9 11.8 62 9.4
2011-04-21 11:43:21 51°17.761 3°1.076 61.8 11.9 63 9.5
2011-04-21 11:44:20 51°17.849 3°1.357 61.4 12 62 9.4
2011-04-21 11:45:21 51°17.959 3°1.628 54.9 12.1 57 9.6
2011-04-21 11:46:21 51°18.051 3°1.908 62.1 11.9 64 9.3
2011-04-21 11:47:21 51°18.152 3°2.175 53.8 11.8 56 9.1
2011-04-21 11:48:21 51°18.252 3°2.448 62.3 11.9 64 9
2011-04-21 11:49:22 51°18.35 3°2.731 56.9 12 57 9.1
2011-04-21 11:50:22 51°18.458 3°2.998 60 12 61 9.1
2011-04-21 11:51:22 51°18.555 3°3.273 55.6 11.7 56 9
2011-04-21 11:52:22 51°18.665 3°3.531 58 11.8 60 9.1
2011-04-21 11:53:22 51°18.755 3°3.808 61 11.7 61 9.1
2011-04-21 11:54:22 51°18.864 3°4.064 54.3 11.7 55 9.1
2011-04-21 11:55:21 51°18.958 3°4.332 62.4 11.8 64 9
2011-04-21 11:56:22 51°19.059 3°4.606 54.9 11.8 54 8.8
2011-04-21 11:57:21 51°19.159 3°4.87 62.2 11.9 63 8.6
2011-04-21 11:58:21 51°19.29 3°5.095 40.1 11.7 38 8.5
2011-04-21 11:59:22 51°19.468 3°5.234 23.2 11.8 21 8.2
2011-04-21 12:00:21 51°19.641 3°5.367 31.4 11.8 28 8
2011-04-21 12:01:21 51°19.832 3°5.456 17.2 12 16 8.4
2011-04-21 12:02:21 51°20.009 3°5.596 29.7 11.9 28 8.4
2011-04-21 12:03:21 51°20.196 3°5.7 18.6 11.9 17 8.2
2011-04-21 12:04:21 51°20.371 3°5.841 32.5 11.8 31 5.9
2011-04-21 12:05:21 51°20.548 3°5.981 21.2 11.9 19 7.9
2011-04-21 12:06:21 51°20.734 3°6.085 26.6 11.9 29 8
2011-04-21 12:07:21 51°20.892 3°6.278 39.3 11.9 39 8.2
2011-04-21 12:08:21 51°21.008 3°6.404 38.3 6.2 41 8.9
2011-04-21 12:09:21 51°21.052 3°6.507 60.3 3.8 66 9.2
2011-04-21 12:10:21 51°21.07 3°6.592 64 3.4 72 9.1
2011-04-21 12:11:21 51°21.093 3°6.674 55.9 3.4 61 9.2
2011-04-21 12:12:21 51°21.122 3°6.752 53.9 3.4 60 9.3
2011-04-21 12:13:21 51°21.148 3°6.834 58.7 3.5 65 9.4
2011-04-21 12:14:21 51°21.171 3°6.921 60.7 3.5 67 9.5
2011-04-21 12:15:21 51°21.198 3°7.004 53.5 3.5 59 9.5
2011-04-21 12:16:21 51°21.231 3°7.081 48.6 3.5 54 9.5
2011-04-21 12:17:21 51°21.266 3°7.157 49.7 3.6 55 9.7
2011-04-21 12:18:21 51°21.298 3°7.238 53.4 3.7 59 9.9
2011-04-21 12:19:21 51°21.332 3°7.32 49.4 3.7 55 10
2011-04-21 12:20:21 51°21.371 3°7.393 39.8 3.6 42 10.2
2011-04-21 12:21:21 51°21.42 3°7.444 24.2 3.5 25 10.5
2011-04-21 12:22:21 51°21.476 3°7.479 21.6 3.6 22 10.7
2011-04-21 12:23:21 51°21.531 3°7.52 27 3.7 27 10.9
2011-04-21 12:24:21 51°21.584 3°7.569 30.5 3.7 31 11.1
2011-04-21 12:25:21 51°21.637 3°7.612 17.7 3.5 16 11.3
2011-04-21 12:26:21 51°21.695 3°7.613 355.7 3.5 351 11.6
2011-04-21 12:27:21 51°21.751 3°7.582 340.5 3.7 334 11.9
2011-04-21 12:28:21 51°21.804 3°7.524 327.6 3.9 320 12.1
2011-04-21 12:29:21 51°21.852 3°7.456 324.9 3.7 317 12.4
2011-04-21 12:30:21 51°21.897 3°7.389 324.7 3.6 317 12.4
2011-04-21 12:31:21 51°21.94 3°7.323 324.7 3.6 316 12.6
2011-04-21 12:32:21 51°21.984 3°7.258 326.6 3.6 319 12.7
2011-04-21 12:33:21 51°22.03 3°7.199 330 3.6 324 12.9
2011-04-21 12:34:21 51°22.077 3°7.146 329.8 3.4 324 13.3
2011-04-21 12:35:21 51°22.123 3°7.089 325.5 3.5 320 12.9
2011-04-21 12:36:21 51°22.166 3°7.026 321.7 3.5 316 13.4
2011-04-21 12:37:21 51°22.209 3°6.963 323 3.4 319 13.5
2011-04-21 12:38:21 51°22.254 3°6.906 326.6 3.4 324 13.6
2011-04-21 12:39:21 51°22.302 3°6.858 330.9 3.4 329 13.5
2011-04-21 12:40:21 51°22.35 3°6.812 329 3.3 328 13.7
2011-04-21 12:41:21 51°22.397 3°6.765 327.4 3.4 328 13.6
2011-04-21 12:42:21 51°22.443 3°6.715 323.8 3.3 324 13.4
2011-04-21 12:43:21 51°22.487 3°6.661 321.6 3.3 323 13.6
2011-04-21 12:44:21 51°22.532 3°6.611 324.1 3.2 326 13.6
2011-04-21 12:45:21 51°22.578 3°6.566 327.4 3.2 331 13.7
2011-04-21 12:46:21 51°22.624 3°6.527 328.1 3.1 331 13.6
2011-04-21 12:47:21 51°22.67 3°6.487 328.4 3.1 333 13.7
2011-04-21 12:48:21 51°22.715 3°6.449 328.7 3 332 13.6
2011-04-21 12:49:21 51°22.761 3°6.412 329.2 3 335 13.6
2011-04-21 12:50:21 51°22.806 3°6.379 328.5 2.9 334 13.4
2011-04-21 12:51:21 51°22.848 3°6.344 324.6 2.8 330 13.4
2011-04-21 12:52:21 51°22.886 3°6.302 320.7 2.7 325 13.1
2011-04-21 12:53:21 51°22.926 3°6.265 323.9 2.6 331 13.1
2011-04-21 12:54:21 51°22.965 3°6.234 326.5 2.7 337 13.2
2011-04-21 12:55:21 51°23.006 3°6.207 327.9 2.7 338 13.2
2011-04-21 12:56:21 51°23.045 3°6.179 325.8 2.6 333 12.9
2011-04-21 12:57:21 51°23.082 3°6.144 322.8 2.6 327 13.3
2011-04-21 12:58:21 51°23.119 3°6.11 326.5 2.5 337 13.5
2011-04-21 12:59:21 51°23.157 3°6.123 12.5 2.6 39 13.5
2011-04-21 13:00:21 51°23.186 3°6.188 33.7 3.3 57 13.7
2011-04-21 13:01:21 51°23.222 3°6.253 16 3.2 42 13.8
2011-04-21 13:02:21 51°23.268 3°6.308 14.6 3.8 36 13.5
2011-04-21 13:03:21 51°23.324 3°6.374 19.7 4.2 40 14.4
2011-04-21 13:04:21 51°23.366 3°6.475 58.2 5 74 14.2
2011-04-21 13:05:21 51°23.366 3°6.617 86.5 5.7 95 14.3
2011-04-21 13:06:21 51°23.355 3°6.772 87.7 5.7 96 14.2
2011-04-21 13:07:21 51°23.347 3°6.915 84.5 5.2 95 14.2
2011-04-21 13:08:21 51°23.339 3°7.05 85.5 5 95 14.3
2011-04-21 13:09:21 51°23.333 3°7.182 86.8 5 95 14.3
2011-04-21 13:10:21 51°23.32 3°7.314 99.1 5.1 102 14.4
2011-04-21 13:11:21 51°23.296 3°7.444 107.3 5.1 108 14.6
2011-04-21 13:12:21 51°23.271 3°7.576 105.6 5.2 106 14.4
2011-04-21 13:13:21 51°23.247 3°7.71 103.9 5.3 105 14.4
2011-04-21 13:14:21 51°23.222 3°7.842 118.5 4.9 114 14
2011-04-21 13:15:21 51°23.177 3°7.93 168.4 3.7 143 14
2011-04-21 13:16:21 51°23.133 3°7.959 214.7 2.2 173 13.9
2011-04-21 13:17:21 51°23.111 3°7.948 260.5 1.2 238 13.9
2011-04-21 13:18:21 51°23.111 3°7.886 276.1 3.3 279 14
2011-04-21 13:19:21 51°23.126 3°7.784 281 4.3 286 14.1
2011-04-21 13:20:21 51°23.158 3°7.679 293.8 4.5 303 14.1
2011-04-21 13:21:21 51°23.207 3°7.585 305.2 4.7 318 14.1
2011-04-21 13:22:22 51°23.277 3°7.523 323.3 5 340 14.6
2011-04-21 13:23:21 51°23.356 3°7.479 323.7 5.1 341 14.9
2011-04-21 13:24:21 51°23.435 3°7.434 322.2 5.1 341 15.3
2011-04-21 13:25:21 51°23.514 3°7.387 319.6 5 338 16.2
2011-04-21 13:26:21 51°23.593 3°7.339 322.3 5.1 341 17.7
2011-04-21 13:27:21 51°23.677 3°7.3 327.1 5.3 347 20.4
2011-04-21 13:28:21 51°23.763 3°7.268 326.8 5.3 347 21.3
2011-04-21 13:29:21 51°23.847 3°7.23 322.3 5.2 342 21.7
2011-04-21 13:30:21 51°23.933 3°7.195 330.8 5.4 350 21.7
2011-04-21 13:31:21 51°24.027 3°7.188 338.5 5.7 359 21.6
2011-04-21 13:32:21 51°24.123 3°7.187 338.6 5.8 359 22
2011-04-21 13:33:21 51°24.218 3°7.183 337.8 5.6 358 17.8
2011-04-21 13:34:21 51°24.309 3°7.169 331.2 5.4 351 15.7
2011-04-21 13:35:21 51°24.397 3°7.147 332.2 5.4 353 14.9
2011-04-21 13:36:21 51°24.487 3°7.132 335.5 5.5 356 14.5
2011-04-21 13:37:21 51°24.578 3°7.124 339 5.6 359 14.1
2011-04-21 13:38:21 51°24.671 3°7.119 337 5.5 356 14.1
2011-04-21 13:39:21 51°24.761 3°7.103 333.2 5.4 352 14
2011-04-21 13:40:21 51°24.849 3°7.08 331.8 5.4 351 13.8
2011-04-21 13:41:21 51°24.939 3°7.06 335.6 5.5 355 13.1
2011-04-21 13:42:21 51°25.033 3°7.053 339.8 5.7 358 12.5
2011-04-21 13:43:21 51°25.127 3°7.044 336.1 5.6 355 12.4
2011-04-21 13:44:21 51°25.219 3°7.024 332.5 5.6 351 12.7
2011-04-21 13:45:21 51°25.312 3°6.999 332.6 5.7 351 12.7
2011-04-21 13:46:21 51°25.407 3°6.978 335.3 5.9 354 12.9
2011-04-21 13:47:21 51°25.505 3°6.966 339.8 6 358 13
2011-04-21 13:48:21 51°25.603 3°6.954 337 5.9 355 13
2011-04-21 13:49:21 51°25.7 3°6.934 334 5.8 351 12.9
2011-04-21 13:50:21 51°25.794 3°6.903 331.5 5.8 348 12.8
2011-04-21 13:51:21 51°25.89 3°6.875 334.8 5.9 351 13.2
2011-04-21 13:52:21 51°25.99 3°6.856 338.6 6.1 356 13.4
2011-04-21 13:53:21 51°26.091 3°6.843 338.7 6.1 355 13.7
2011-04-21 13:54:21 51°26.191 3°6.822 335.4 6 351 13.1
2011-04-21 13:55:21 51°26.29 3°6.794 332.5 6 349 13.7
2011-04-21 13:56:21 51°26.387 3°6.759 331.7 6 347 13.7
2011-04-21 13:57:21 51°26.477 3°6.706 319.8 5.6 335 14.2
2011-04-21 13:58:21 51°26.559 3°6.635 315.9 5.6 331 14.5
2011-04-21 13:59:21 51°26.643 3°6.565 318.6 5.7 333 14.5
2011-04-21 14:00:21 51°26.732 3°6.501 321.9 5.9 337 14.9
2011-04-21 14:01:21 51°26.822 3°6.441 323.4 5.8 337 15
2011-04-21 14:02:21 51°26.912 3°6.381 323.2 5.9 337 15.2
2011-04-21 14:03:21 51°27.001 3°6.317 319.3 5.8 332 15.5
2011-04-21 14:04:21 51°27.083 3°6.242 316.2 5.7 330 15.9
2011-04-21 14:05:21 51°27.166 3°6.17 319.2 5.8 333 16.2
2011-04-21 14:06:21 51°27.254 3°6.104 322.3 5.8 336 16.5
2011-04-21 14:07:21 51°27.342 3°6.044 323.4 5.8 337 16.9
2011-04-21 14:08:21 51°27.43 3°5.983 322.3 5.8 336 17.1
2011-04-21 14:09:21 51°27.513 3°5.914 314.8 5.4 326 17.2
2011-04-21 14:10:21 51°27.562 3°5.803 282.2 6.1 288 17.3
2011-04-21 14:11:21 51°27.57 3°5.612 258.1 7.9 258 17.5
2011-04-21 14:12:21 51°27.485 3°5.406 230 11 225 17.5
2011-04-21 14:13:21 51°27.329 3°5.227 216.4 11.7 212 17.5
2011-04-21 14:14:21 51°27.177 3°5.036 225.1 11.6 224 17
2011-04-21 14:15:21 51°27.046 3°4.811 227.7 11.6 226 17.3
2011-04-21 14:16:21 51°26.914 3°4.587 227.9 11.5 226 16.9
2011-04-21 14:17:21 51°26.773 3°4.379 220.8 11.5 219 15.3
2011-04-21 14:18:21 51°26.63 3°4.176 224.4 11.5 224 14.4
2011-04-21 14:19:21 51°26.49 3°3.969 223 11.4 223 13.7
2011-04-21 14:20:21 51°26.359 3°3.75 229.7 11.4 229 12.7
2011-04-21 14:21:21 51°26.226 3°3.534 220.8 11.4 218 14.2
2011-04-21 14:22:21 51°26.067 3°3.363 216.6 11.5 215 14.7
2011-04-21 14:23:21 51°25.912 3°3.18 217.3 11.5 215 12.6
2011-04-21 14:24:21 51°25.761 3°2.993 222.2 11.6 222 14.3
2011-04-21 14:25:21 51°25.616 3°2.792 221.8 11.6 220 15
2011-04-21 14:26:21 51°25.515 3°2.543 249.3 11.2 252 15
2011-04-21 14:27:21 51°25.428 3°2.281 234.2 11.2 232 15.6
2011-04-21 14:28:21 51°25.273 3°2.102 214.9 11.7 213 16.6
2011-04-21 14:29:21 51°25.113 3°1.926 218.2 11.7 215 17.3
2011-04-21 14:30:21 51°24.961 3°1.734 222.2 11.6 221 19
2011-04-21 14:31:21 51°24.818 3°1.528 223.6 11.7 221 21
2011-04-21 14:32:21 51°24.666 3°1.331 219.7 11.8 217 22.2
2011-04-21 14:33:21 51°24.509 3°1.144 220.9 11.6 219 19.5
2011-04-21 14:34:21 51°24.369 3°0.936 224 11.4 223 19.4
2011-04-21 14:35:21 51°24.222 3°0.742 217.7 11.4 216 19.9
2011-04-21 14:36:21 51°24.076 3°0.549 222.7 11.3 223 20.3
2011-04-21 14:37:21 51°23.94 3°0.343 224.3 11.2 223 20.9
2011-04-21 14:38:21 51°23.793 3°0.159 217.1 11.2 215 21.8
2011-04-21 14:39:21 51°23.645 2°59.98 219.4 11.1 218 21.5
2011-04-21 14:40:21 51°23.492 2°59.813 211.5 11.2 207 21.4
2011-04-21 14:41:21 51°23.313 2°59.714 197.3 11.6 193 21.1
2011-04-21 14:42:21 51°23.121 2°59.679 191.2 11.6 186 20
2011-04-21 14:43:21 51°22.931 2°59.631 195.4 11.6 191 19.1
2011-04-21 14:44:21 51°22.741 2°59.574 196.6 11.5 191 18.3
2011-04-21 14:45:21 51°22.555 2°59.505 197.7 11.6 195 17.4
2011-04-21 14:46:21 51°22.372 2°59.413 205.7 11.3 203 17
2011-04-21 14:47:21 51°22.201 2°59.277 207.4 11.5 205 16.5
2011-04-21 14:48:21 51°22.028 2°59.142 211 11.5 210 16.1
2011-04-21 14:49:21 51°21.865 2°58.98 213.8 11.5 212 15.9
2011-04-21 14:50:21 51°21.712 2°58.801 220.6 11.4 220 15.9
2011-04-21 14:51:21 51°21.575 2°58.594 223.6 11.4 223 15.9
2011-04-21 14:52:21 51°21.426 2°58.407 216.8 11.4 216 15.8
2011-04-21 14:53:21 51°21.276 2°58.219 219.4 11.5 220 15.7
2011-04-21 14:54:21 51°21.137 2°58.013 223.8 11.4 223 15.7
2011-04-21 14:55:21 51°20.99 2°57.822 217.1 11.4 216 15.5
2011-04-21 14:56:21 51°20.839 2°57.642 218.6 11.3 218 15.6
2011-04-21 14:57:21 51°20.703 2°57.436 226.1 11.3 227 15.6
2011-04-21 14:58:21 51°20.571 2°57.223 222.6 11.3 222 15.4
2011-04-21 14:59:21 51°20.428 2°57.028 222.2 11.3 224 15.5
2011-04-21 15:00:21 51°20.298 2°56.81 224.4 11.3 225 15.4
2011-04-21 15:01:21 51°20.155 2°56.613 218.7 11.4 220 15.3
2011-04-21 15:02:21 51°20.01 2°56.415 220.1 11.5 221 15.3
2011-04-21 15:03:21 51°19.876 2°56.2 225.9 11.4 228 15.1
2011-04-21 15:04:21 51°19.746 2°55.979 224 11.4 225 14.9
2011-04-21 15:05:21 51°19.601 2°55.782 219 11.6 220 15
2011-04-21 15:06:21 51°19.459 2°55.574 223.3 11.5 226 14.8
2011-04-21 15:07:21 51°19.33 2°55.346 225.6 11.6 227 14.8
2011-04-21 15:08:21 51°19.188 2°55.14 215.9 11.7 218 14.7
2011-04-21 15:09:21 51°19.038 2°54.944 219.7 11.6 222 14.6
2011-04-21 15:10:21 51°18.9 2°54.729 223.8 11.6 226 14.4
2011-04-21 15:11:21 51°18.755 2°54.526 217 11.6 218 14.2
2011-04-21 15:12:21 51°18.602 2°54.34 215 11.5 216 14
2011-04-21 15:13:21 51°18.434 2°54.191 204.6 11.7 204 13.8
2011-04-21 15:14:21 51°18.26 2°54.055 206.7 11.6 208 13.5
2011-04-21 15:15:21 51°18.093 2°53.898 211.3 11.6 213 13.3
2011-04-21 15:16:21 51°17.924 2°53.748 203.6 11.7 203 13.1
2011-04-21 15:17:21 51°17.744 2°53.628 202.9 11.8 204 13
2011-04-21 15:18:21 51°17.567 2°53.496 204.8 11.7 206 12.7
2011-04-21 15:19:21 51°17.394 2°53.35 208.4 11.6 210 12.7
2011-04-21 15:20:21 51°17.222 2°53.206 203.9 11.7 202 12.1
2011-04-21 15:21:21 51°17.03 2°53.156 182.2 11.9 180 11.8
2011-04-21 15:22:21 51°16.831 2°53.164 181.3 12 178 13.3
2011-04-21 15:23:21 51°16.63 2°53.221 169 12.4 164 14.6
2011-04-21 15:24:21 51°16.434 2°53.336 164.1 12.5 159 14.9
2011-04-21 15:25:21 51°16.247 2°53.491 150.6 12.8 146 14.7
2011-04-21 15:26:21 51°16.059 2°53.64 161.4 12.5 158 14.3
2011-04-21 15:27:21 51°15.862 2°53.748 163.4 12.6 159 14.1
2011-04-21 15:28:21 51°15.671 2°53.885 160.5 12.6 155 13.7
2011-04-21 15:29:21 51°15.491 2°54.067 148.4 12.9 145 13.2
2011-04-21 15:30:21 51°15.31 2°54.245 155.3 12.6 154 12.5
2011-04-21 15:31:21 51°15.122 2°54.395 151.4 12.8 148 12.8
2011-04-21 15:32:21 51°14.947 2°54.589 150.9 12.7 146 13.9
2011-04-21 15:33:21 51°14.773 2°54.783 147.3 12.8 142 14.7
2011-04-21 15:34:21 51°14.6 2°54.981 149.9 12.7 145 14.5
2011-04-21 15:35:21 51°14.417 2°55.145 146.4 12.4 148 13.2
2011-04-21 15:36:25 51°14.248 2°55.313 147.4 10.4 151 -999
2011-04-21 15:37:25 51°14.097 2°55.433 151.8 10.1 155 -999
2011-04-21 15:38:23 51°13.956 2°55.536 154.5 9.1 158 13.7
2011-04-21 15:39:21 51°13.835 2°55.631 149.6 7.8 151 13.9
2011-04-21 15:40:21 51°13.743 2°55.744 127.5 5.7 129 13
2011-04-21 15:41:23 51°13.694 2°55.851 122.5 4.1 125 12.4
2011-04-21 15:42:23 51°13.667 2°55.931 109.9 2.9 111 11.5
2011-04-21 15:43:23 51°13.661 2°55.959 119.9 0.2 115 10.5